createdAt,value
2022-12-25T00:00:29.697Z,12.40
2022-12-25T00:05:52.388Z,22.10
2022-12-25T00:11:03.801Z,8.90
2022-12-25T00:16:14.842Z,6.90
2022-12-25T00:21:18.628Z,9.40
2022-12-25T00:26:21.994Z,8.30
2022-12-25T00:36:28.092Z,12.40
2022-12-25T00:41:49.564Z,10.10
2022-12-25T00:46:52.400Z,8.10
2022-12-25T00:51:55.343Z,14.40
2022-12-25T00:56:58.338Z,26.00
2022-12-25T01:02:21.189Z,13.80
2022-12-25T01:07:25.915Z,13.40
2022-12-25T01:12:29.061Z,11.00
2022-12-25T01:17:31.795Z,12.10
2022-12-25T01:22:34.532Z,11.80
2022-12-25T01:27:37.941Z,10.50
2022-12-25T01:32:40.615Z,12.40
2022-12-25T01:37:43.275Z,10.20
2022-12-25T01:42:46.105Z,14.90
2022-12-25T01:47:48.843Z,13.40
2022-12-25T01:52:52.434Z,9.00
2022-12-25T01:57:55.305Z,8.40
2022-12-25T02:02:59.194Z,11.70
2022-12-25T02:08:10.328Z,13.80
2022-12-25T02:13:15.857Z,17.70
2022-12-25T02:18:32.950Z,9.90
2022-12-25T02:23:38.687Z,9.90
2022-12-25T02:29:00.750Z,10.80
2022-12-25T02:34:06.156Z,13.00
2022-12-25T02:39:42.681Z,19.80
2022-12-25T02:45:06.429Z,12.70
2022-12-25T02:50:28.655Z,11.50
2022-12-25T02:55:55.792Z,14.30
2022-12-25T03:01:43.396Z,12.40
2022-12-25T03:07:14.487Z,13.10
2022-12-25T03:12:24.811Z,9.50
2022-12-25T03:17:27.678Z,9.40
2022-12-25T03:22:51.092Z,10.30
2022-12-25T03:27:56.177Z,8.70
2022-12-25T03:33:43.192Z,11.50
2022-12-25T03:38:50.346Z,9.90
2022-12-25T03:44:17.934Z,11.40
2022-12-25T03:50:04.813Z,10.00
2022-12-25T03:55:30.653Z,7.60
2022-12-25T04:00:51.821Z,12.00
2022-12-25T04:06:13.348Z,9.10
2022-12-25T04:11:34.630Z,14.30
2022-12-25T04:16:56.233Z,13.60
2022-12-25T04:22:17.770Z,9.80
2022-12-25T04:27:38.925Z,15.10
2022-12-25T04:33:00.315Z,12.10
2022-12-25T04:38:03.018Z,13.70
2022-12-25T04:43:05.765Z,16.70
2022-12-25T04:48:08.496Z,13.20
2022-12-25T04:53:11.234Z,13.20
2022-12-25T04:58:14.075Z,11.90
2022-12-25T05:03:18.191Z,11.70
2022-12-25T05:08:20.953Z,13.30
2022-12-25T05:13:24.024Z,12.20
2022-12-25T05:18:26.757Z,10.80
2022-12-25T05:23:29.522Z,16.40
2022-12-25T05:28:33.679Z,13.70
2022-12-25T05:33:36.433Z,15.20
2022-12-25T05:38:39.545Z,11.70
2022-12-25T05:43:42.224Z,13.30
2022-12-25T05:48:45.084Z,19.90
2022-12-25T05:53:48.083Z,11.50
2022-12-25T05:58:50.832Z,8.70
2022-12-25T06:03:53.720Z,9.00
2022-12-25T06:08:56.508Z,8.40
2022-12-25T06:13:59.239Z,13.80
2022-12-25T06:19:02.049Z,11.40
2022-12-25T06:24:05.011Z,12.30
2022-12-25T06:29:08.347Z,11.60
2022-12-25T06:34:11.173Z,10.80
2022-12-25T06:39:13.872Z,12.50
2022-12-25T06:44:16.766Z,12.70
2022-12-25T06:49:19.812Z,12.30
2022-12-25T06:54:22.852Z,12.10
2022-12-25T06:59:25.591Z,12.70
2022-12-25T07:04:39.280Z,15.80
2022-12-25T07:09:42.804Z,15.20
2022-12-25T07:14:50.357Z,17.90
2022-12-25T07:19:53.211Z,20.40
2022-12-25T07:24:55.904Z,21.60
2022-12-25T07:29:58.612Z,15.70
2022-12-25T07:35:01.308Z,17.80
2022-12-25T07:40:04.550Z,15.50
2022-12-25T07:45:07.959Z,14.60
2022-12-25T07:50:12.246Z,15.90
2022-12-25T07:55:14.968Z,14.90
2022-12-25T08:00:18.238Z,14.90
2022-12-25T08:10:23.530Z,14.10
2022-12-25T08:15:26.223Z,18.40
2022-12-25T08:20:28.937Z,18.40
2022-12-25T08:25:32.463Z,29.40
2022-12-25T08:30:37.781Z,28.90
2022-12-25T08:35:42.861Z,21.30
2022-12-25T08:40:45.556Z,14.70
2022-12-25T08:45:49.211Z,15.00
2022-12-25T08:50:53.691Z,16.50
2022-12-25T08:56:01.547Z,21.80
2022-12-25T09:01:05.513Z,31.60
2022-12-25T09:06:11.582Z,24.10
2022-12-25T09:11:15.326Z,22.30
2022-12-25T09:16:20.682Z,19.50
2022-12-25T09:21:23.709Z,28.30
2022-12-25T09:26:27.351Z,25.40
2022-12-25T09:31:30.602Z,20.60
2022-12-25T09:36:33.378Z,22.00
2022-12-25T09:42:24.017Z,22.20
2022-12-25T09:47:31.707Z,29.30
2022-12-25T09:52:43.603Z,25.80
2022-12-25T09:57:51.568Z,20.40
2022-12-25T10:03:16.429Z,20.10
2022-12-25T10:08:47.927Z,18.70
2022-12-25T10:14:25.473Z,19.70
2022-12-25T10:19:45.205Z,22.00
2022-12-25T10:24:54.837Z,23.50
2022-12-25T10:29:59.025Z,23.40
2022-12-25T10:35:01.770Z,20.50
2022-12-25T10:40:23.597Z,19.70
2022-12-25T10:45:26.340Z,13.10
2022-12-25T10:50:29.135Z,16.00
2022-12-25T10:55:33.325Z,17.50
2022-12-25T11:00:36.121Z,15.60
2022-12-25T11:05:39.134Z,18.20
2022-12-25T11:10:42.737Z,20.90
2022-12-25T11:15:48.951Z,20.10
2022-12-25T11:20:53.001Z,16.30
2022-12-25T11:26:02.672Z,15.60
2022-12-25T11:31:19.258Z,18.10
2022-12-25T11:36:46.141Z,14.30
2022-12-25T11:41:53.981Z,14.70
2022-12-25T11:46:59.966Z,11.40
2022-12-25T11:52:02.732Z,10.70
2022-12-25T11:57:07.168Z,10.00
2022-12-25T12:02:28.836Z,12.60
2022-12-25T12:07:34.203Z,13.40
2022-12-25T12:12:53.185Z,11.10
2022-12-25T12:18:07.371Z,15.80
2022-12-25T12:23:16.666Z,14.40
2022-12-25T12:28:39.438Z,14.50
2022-12-25T12:33:59.517Z,14.00
2022-12-25T12:39:02.620Z,13.20
2022-12-25T12:44:06.814Z,10.80
2022-12-25T12:49:20.429Z,12.20
2022-12-25T12:54:27.524Z,11.30
2022-12-25T12:59:44.457Z,8.80
2022-12-25T13:05:04.189Z,9.70
2022-12-25T13:10:12.969Z,10.20
2022-12-25T13:15:15.750Z,11.80
2022-12-25T13:20:30.325Z,14.60
2022-12-25T13:25:33.041Z,14.70
2022-12-25T13:30:35.782Z,19.70
2022-12-25T13:35:43.466Z,17.50
2022-12-25T13:41:14.244Z,27.70
2022-12-25T13:46:26.849Z,24.50
2022-12-25T13:51:29.859Z,22.10
2022-12-25T13:56:35.206Z,23.10
2022-12-25T14:01:43.166Z,24.00
2022-12-25T14:06:46.152Z,27.90
2022-12-25T14:11:52.596Z,24.00
2022-12-25T14:16:59.343Z,24.70
2022-12-25T14:22:21.816Z,26.60
2022-12-25T14:27:28.274Z,45.80
2022-12-25T14:32:38.765Z,45.00
2022-12-25T14:37:42.296Z,31.90
2022-12-25T14:43:01.844Z,36.70
2022-12-25T14:48:37.010Z,52.80
2022-12-25T14:54:00.355Z,48.50
2022-12-25T14:59:03.122Z,31.30
2022-12-25T15:04:17.402Z,25.00
2022-12-25T15:09:21.045Z,36.60
2022-12-25T15:14:25.316Z,30.50
2022-12-25T15:19:36.933Z,23.70
2022-12-25T15:24:40.651Z,23.60
2022-12-25T15:30:09.206Z,24.40
2022-12-25T15:35:06.918Z,20.10
2022-12-25T15:40:12.718Z,17.80
2022-12-25T15:45:24.427Z,15.40
2022-12-25T15:50:27.216Z,18.50
2022-12-25T15:55:30.060Z,17.90
2022-12-25T16:00:32.830Z,15.40
2022-12-25T16:05:35.804Z,17.20
2022-12-25T16:10:39.230Z,16.60
2022-12-25T16:15:45.117Z,14.30
2022-12-25T16:20:47.964Z,19.00
2022-12-25T16:25:51.379Z,15.60
2022-12-25T16:30:54.176Z,18.10
2022-12-25T16:35:57.494Z,21.80
2022-12-25T16:46:13.206Z,17.20
2022-12-25T16:51:19.385Z,17.60
2022-12-25T16:56:28.665Z,17.80
2022-12-25T17:01:31.456Z,18.90
2022-12-25T17:06:34.279Z,18.40
2022-12-25T17:11:37.012Z,17.80
2022-12-25T17:16:40.662Z,17.20
2022-12-25T17:21:43.458Z,18.80
2022-12-25T17:26:46.304Z,17.60
2022-12-25T17:31:49.182Z,19.40
2022-12-25T17:36:53.648Z,19.20
2022-12-25T17:41:56.500Z,16.30
2022-12-25T17:46:59.494Z,21.80
2022-12-25T17:52:02.424Z,19.50
2022-12-25T17:57:05.160Z,14.80
2022-12-25T18:02:09.071Z,16.50
2022-12-25T18:07:12.946Z,21.00
2022-12-25T18:12:15.687Z,20.10
2022-12-25T18:17:18.410Z,18.20
2022-12-25T18:22:22.237Z,18.50
2022-12-25T18:27:25.008Z,21.20
2022-12-25T18:32:28.386Z,21.50
2022-12-25T18:37:34.437Z,20.70
2022-12-25T18:42:40.695Z,20.30
2022-12-25T18:47:44.047Z,23.10
2022-12-25T18:57:55.229Z,22.30
2022-12-25T19:02:59.097Z,20.20
2022-12-25T19:08:02.642Z,23.00
2022-12-25T19:13:05.961Z,22.90
2022-12-25T19:23:11.338Z,18.00
2022-12-25T19:28:14.051Z,23.50
2022-12-25T19:33:18.058Z,19.00
2022-12-25T19:38:20.931Z,20.90
2022-12-25T19:43:23.671Z,19.70
2022-12-25T19:48:26.478Z,22.90
2022-12-25T19:53:30.207Z,18.30
2022-12-25T19:58:32.970Z,19.60
2022-12-25T20:03:45.528Z,14.30
2022-12-25T20:08:50.990Z,21.70
2022-12-25T20:13:54.884Z,18.20
2022-12-25T20:18:58.792Z,18.00
2022-12-25T20:24:01.579Z,14.80
2022-12-25T20:29:04.603Z,21.60
2022-12-25T20:34:08.805Z,18.20
2022-12-25T20:39:13.014Z,18.30
2022-12-25T20:44:15.798Z,14.40
2022-12-25T20:49:18.745Z,20.80
2022-12-25T20:54:21.522Z,16.20
2022-12-25T20:59:24.340Z,18.80
2022-12-25T21:04:27.196Z,20.20
2022-12-25T21:09:29.911Z,24.20
2022-12-25T21:14:32.646Z,21.30
2022-12-25T21:19:35.371Z,19.60
2022-12-25T21:24:38.256Z,16.60
2022-12-25T21:29:41.094Z,17.20
2022-12-25T21:34:43.805Z,25.10
2022-12-25T21:39:50.119Z,21.20
2022-12-25T21:44:52.806Z,17.60
2022-12-25T21:50:14.191Z,14.70
2022-12-25T21:55:16.886Z,15.50
2022-12-25T22:00:20.267Z,17.10
2022-12-25T22:05:41.889Z,18.00
2022-12-25T22:10:44.634Z,18.70
2022-12-25T22:16:06.172Z,15.90
2022-12-25T22:21:08.870Z,21.40
2022-12-25T22:26:15.863Z,14.60
2022-12-25T22:31:21.757Z,15.00
2022-12-25T22:36:24.480Z,16.40
2022-12-25T22:41:33.304Z,15.30
2022-12-25T22:46:36.579Z,14.30
2022-12-25T22:51:39.307Z,13.80
2022-12-25T22:56:44.488Z,11.10
2022-12-25T23:01:47.225Z,15.10
2022-12-25T23:06:50.382Z,16.00
2022-12-25T23:11:55.427Z,10.20
2022-12-25T23:16:59.704Z,12.80
2022-12-25T23:22:28.742Z,15.40
2022-12-25T23:27:31.516Z,14.60
2022-12-25T23:32:34.293Z,11.90
2022-12-25T23:37:37.042Z,16.00
2022-12-25T23:42:39.762Z,14.40
2022-12-25T23:47:42.477Z,9.40
2022-12-25T23:52:45.178Z,11.90
2022-12-25T23:57:47.974Z,14.60
